Laramie, WY (82072)

9:21 PM MDT on August 27, 2015 (GMT -0600)
Sheep Mountain East - Wild Horse Ranch | | Change Station
CLOSE
Current Station
Personal Weather Station
Location: Laramie, WY
Elevation: 7700 ft
Nearby Weather Stations

Elev 7700 ft 41.24 °N, 106.00 °W | Updated 1 minute ago

Overcast
Overcast
61.4 °F
Feels Like 61.4 °F
N
2.0
Wind Variable Wind from WSW
Gusts 3.0 mph

Today
High -- | Low -- °F
--% Chance of Precip.
Yesterday
High -- | Low -- °F
Precip. -- in
6:23 AM 7:43 PM
Waxing Gibbous, 96% visible
Pressure 30.00 in
Visibility 10.0 miles
Clouds Overcast 7500 ft
Dew Point 47 °F
Humidity 60%
Rainfall 0.12 in
Snow Depth Not available.
UV 0 out of 12
Pollen 10.10 out of 12
Air Quality Not available.
Flu Activity Not available.
METAR KLAR 280253Z AUTO 36005KT 10SM OVC075 16/10 A3028 RMK AO2 SLP158 60000 T01610100 53003
Pressure 30.00 in
Visibility 10.0 miles
Clouds Overcast 7500 ft
Dew Point 47 °F
Humidity 60%
Rainfall 0.12 in
Snow Depth Not available.
UV 0 out of 12
Pollen 10.10 out of 12
Air Quality Not available.
Flu Activity Not available.
METAR KLAR 280253Z AUTO 36005KT 10SM OVC075 16/10 A3028 RMK AO2 SLP158 60000 T01610100 53003

10-Day Weather Forecast

×

Almanac

Astronomy

Aug. 27, 2015 Rise Set
Actual Time
Civil Twilight
Nautical Twilight
Astronomical Twilight
Moon
Length of Visible Light
Length of Day
Tomorrow will be .
, % of the Moon is Illuminated

Today's Extremes

State Highs State Lows

Community

WunderPhotos

Upload Photos

1,850,317 photos uploaded!

WunderBlogs® & News

Nearby

Air Quality

  Air Quality AQ Index Pollutant
Not available.

Snow Depth

Station Depth Elevation

Earthquake Activity

City Distance Mag. Time & Date
Minimum magnitude displayed is 2.5.

Coastal Water Temperatures

Place Temperature

Stations

Nearby Weather Stations

Station Location Temp. Windchill Dew Point Humidity Wind Precip. Elev Updated Type